sensor_id;sensor_type;location;lat;lon;timestamp;temperature;humidity
32534;DHT22;18973;48.580;8.912;2024-03-08T00:02:17;3.90;99.90
32534;DHT22;18973;48.580;8.912;2024-03-08T00:04:43;3.80;99.90
32534;DHT22;18973;48.580;8.912;2024-03-08T00:07:10;3.80;99.90
32534;DHT22;18973;48.580;8.912;2024-03-08T00:09:36;3.80;99.90
32534;DHT22;18973;48.580;8.912;2024-03-08T00:12:02;3.80;99.90
32534;DHT22;18973;48.580;8.912;2024-03-08T00:14:27;3.70;99.90
32534;DHT22;18973;48.580;8.912;2024-03-08T00:16:53;3.70;99.90
32534;DHT22;18973;48.580;8.912;2024-03-08T00:19:19;3.70;99.90
32534;DHT22;18973;48.580;8.912;2024-03-08T00:21:45;3.70;99.90
32534;DHT22;18973;48.580;8.912;2024-03-08T00:24:11;3.70;99.90
32534;DHT22;18973;48.580;8.912;2024-03-08T00:26:37;3.60;99.90
32534;DHT22;18973;48.580;8.912;2024-03-08T00:29:03;3.60;99.90
32534;DHT22;18973;48.580;8.912;2024-03-08T00:31:29;3.60;99.90
32534;DHT22;18973;48.580;8.912;2024-03-08T00:33:56;3.60;99.90
32534;DHT22;18973;48.580;8.912;2024-03-08T00:36:22;3.60;99.90
32534;DHT22;18973;48.580;8.912;2024-03-08T00:38:48;3.60;99.90
32534;DHT22;18973;48.580;8.912;2024-03-08T00:41:14;3.60;99.90
32534;DHT22;18973;48.580;8.912;2024-03-08T00:43:39;3.50;99.90
32534;DHT22;18973;48.580;8.912;2024-03-08T00:46:05;3.50;99.90
32534;DHT22;18973;48.580;8.912;2024-03-08T00:48:31;3.50;99.90
32534;DHT22;18973;48.580;8.912;2024-03-08T00:50:57;3.50;99.90
32534;DHT22;18973;48.580;8.912;2024-03-08T00:53:22;3.50;99.90
32534;DHT22;18973;48.580;8.912;2024-03-08T00:55:48;3.50;99.90
32534;DHT22;18973;48.580;8.912;2024-03-08T00:58:14;3.60;99.90
32534;DHT22;18973;48.580;8.912;2024-03-08T01:00:40;3.60;99.90
32534;DHT22;18973;48.580;8.912;2024-03-08T01:03:06;3.50;99.90
32534;DHT22;18973;48.580;8.912;2024-03-08T01:05:32;3.50;99.90
32534;DHT22;18973;48.580;8.912;2024-03-08T01:07:58;3.40;99.90
32534;DHT22;18973;48.580;8.912;2024-03-08T01:10:24;3.40;99.90
32534;DHT22;18973;48.580;8.912;2024-03-08T01:12:49;3.40;99.90
32534;DHT22;18973;48.580;8.912;2024-03-08T01:15:15;3.40;99.90
32534;DHT22;18973;48.580;8.912;2024-03-08T01:17:41;3.40;99.90
32534;DHT22;18973;48.580;8.912;2024-03-08T01:20:07;3.30;99.90
32534;DHT22;18973;48.580;8.912;2024-03-08T01:22:36;3.30;99.90
32534;DHT22;18973;48.580;8.912;2024-03-08T01:25:02;3.20;99.90
32534;DHT22;18973;48.580;8.912;2024-03-08T01:27:30;3.20;99.90
32534;DHT22;18973;48.580;8.912;2024-03-08T01:29:56;3.20;99.90
32534;DHT22;18973;48.580;8.912;2024-03-08T01:32:22;3.20;99.90
32534;DHT22;18973;48.580;8.912;2024-03-08T01:34:49;3.10;99.90
32534;DHT22;18973;48.580;8.912;2024-03-08T01:37:15;3.20;99.90
32534;DHT22;18973;48.580;8.912;2024-03-08T01:39:40;3.10;99.90
32534;DHT22;18973;48.580;8.912;2024-03-08T01:42:06;3.10;99.90
32534;DHT22;18973;48.580;8.912;2024-03-08T01:44:32;3.10;99.90
32534;DHT22;18973;48.580;8.912;2024-03-08T01:46:58;3.10;99.90
32534;DHT22;18973;48.580;8.912;2024-03-08T01:49:24;3.10;99.90
32534;DHT22;18973;48.580;8.912;2024-03-08T01:51:51;3.10;99.90
32534;DHT22;18973;48.580;8.912;2024-03-08T01:54:18;3.10;99.90
32534;DHT22;18973;48.580;8.912;2024-03-08T01:56:45;3.10;99.90
32534;DHT22;18973;48.580;8.912;2024-03-08T01:59:12;3.20;99.90
32534;DHT22;18973;48.580;8.912;2024-03-08T02:01:40;3.20;99.90
32534;DHT22;18973;48.580;8.912;2024-03-08T02:04:06;3.20;99.90
32534;DHT22;18973;48.580;8.912;2024-03-08T02:06:32;3.30;99.90
32534;DHT22;18973;48.580;8.912;2024-03-08T02:08:59;3.20;99.90
32534;DHT22;18973;48.580;8.912;2024-03-08T02:11:24;3.30;99.90
32534;DHT22;18973;48.580;8.912;2024-03-08T02:13:50;3.20;99.90
32534;DHT22;18973;48.580;8.912;2024-03-08T02:16:22;3.20;99.90
32534;DHT22;18973;48.580;8.912;2024-03-08T02:18:48;3.20;99.90
32534;DHT22;18973;48.580;8.912;2024-03-08T02:21:16;3.20;99.90
32534;DHT22;18973;48.580;8.912;2024-03-08T02:23:44;3.20;99.90
32534;DHT22;18973;48.580;8.912;2024-03-08T02:26:09;3.20;99.90
32534;DHT22;18973;48.580;8.912;2024-03-08T02:28:36;3.20;99.90
32534;DHT22;18973;48.580;8.912;2024-03-08T02:31:02;3.20;99.90
32534;DHT22;18973;48.580;8.912;2024-03-08T02:33:28;3.20;99.90
32534;DHT22;18973;48.580;8.912;2024-03-08T02:35:58;3.10;99.90
32534;DHT22;18973;48.580;8.912;2024-03-08T02:38:23;3.10;99.90
32534;DHT22;18973;48.580;8.912;2024-03-08T02:40:51;3.10;99.90
32534;DHT22;18973;48.580;8.912;2024-03-08T02:43:18;3.10;99.90
32534;DHT22;18973;48.580;8.912;2024-03-08T02:45:44;3.10;99.90
32534;DHT22;18973;48.580;8.912;2024-03-08T02:48:11;3.00;99.90
32534;DHT22;18973;48.580;8.912;2024-03-08T02:50:37;3.10;99.90
32534;DHT22;18973;48.580;8.912;2024-03-08T02:53:05;3.00;99.90
32534;DHT22;18973;48.580;8.912;2024-03-08T02:55:31;3.00;99.90
32534;DHT22;18973;48.580;8.912;2024-03-08T02:57:57;3.00;99.90
32534;DHT22;18973;48.580;8.912;2024-03-08T03:00:23;3.00;99.90
32534;DHT22;18973;48.580;8.912;2024-03-08T03:02:50;2.90;99.90
32534;DHT22;18973;48.580;8.912;2024-03-08T03:05:23;2.80;99.90
32534;DHT22;18973;48.580;8.912;2024-03-08T03:07:49;2.80;99.90
32534;DHT22;18973;48.580;8.912;2024-03-08T03:10:18;2.80;99.90
32534;DHT22;18973;48.580;8.912;2024-03-08T03:12:45;2.80;99.90
32534;DHT22;18973;48.580;8.912;2024-03-08T03:15:12;2.80;99.90
32534;DHT22;18973;48.580;8.912;2024-03-08T03:17:38;2.70;99.90
32534;DHT22;18973;48.580;8.912;2024-03-08T03:20:08;2.70;99.90
32534;DHT22;18973;48.580;8.912;2024-03-08T03:22:39;2.70;99.90
32534;DHT22;18973;48.580;8.912;2024-03-08T03:25:07;2.70;99.90
32534;DHT22;18973;48.580;8.912;2024-03-08T03:27:33;2.70;99.90
32534;DHT22;18973;48.580;8.912;2024-03-08T03:29:59;2.80;99.90
32534;DHT22;18973;48.580;8.912;2024-03-08T03:32:44;2.80;99.90
32534;DHT22;18973;48.580;8.912;2024-03-08T03:35:15;2.70;99.90
32534;DHT22;18973;48.580;8.912;2024-03-08T03:37:41;2.70;99.90
32534;DHT22;18973;48.580;8.912;2024-03-08T03:40:17;2.70;99.90
32534;DHT22;18973;48.580;8.912;2024-03-08T03:42:44;2.40;99.90
32534;DHT22;18973;48.580;8.912;2024-03-08T03:45:11;2.50;99.90
32534;DHT22;18973;48.580;8.912;2024-03-08T03:47:37;2.50;99.90
32534;DHT22;18973;48.580;8.912;2024-03-08T03:50:05;2.40;99.90
32534;DHT22;18973;48.580;8.912;2024-03-08T03:52:31;2.40;99.90
32534;DHT22;18973;48.580;8.912;2024-03-08T03:54:57;2.10;99.90
32534;DHT22;18973;48.580;8.912;2024-03-08T03:57:23;2.10;99.90
32534;DHT22;18973;48.580;8.912;2024-03-08T03:59:49;2.00;99.90
32534;DHT22;18973;48.580;8.912;2024-03-08T04:02:16;2.00;99.90
32534;DHT22;18973;48.580;8.912;2024-03-08T04:04:42;1.90;99.90
32534;DHT22;18973;48.580;8.912;2024-03-08T04:07:09;1.90;99.90
32534;DHT22;18973;48.580;8.912;2024-03-08T04:09:35;1.90;99.90
32534;DHT22;18973;48.580;8.912;2024-03-08T04:12:01;2.10;99.90
32534;DHT22;18973;48.580;8.912;2024-03-08T04:14:26;2.20;99.90
32534;DHT22;18973;48.580;8.912;2024-03-08T04:16:52;2.10;99.90
32534;DHT22;18973;48.580;8.912;2024-03-08T04:19:18;2.00;99.90
32534;DHT22;18973;48.580;8.912;2024-03-08T04:21:44;2.10;99.90
32534;DHT22;18973;48.580;8.912;2024-03-08T04:24:10;2.20;99.90
32534;DHT22;18973;48.580;8.912;2024-03-08T04:26:36;2.10;99.90
32534;DHT22;18973;48.580;8.912;2024-03-08T04:29:01;1.90;99.90
32534;DHT22;18973;48.580;8.912;2024-03-08T04:31:27;1.90;99.90
32534;DHT22;18973;48.580;8.912;2024-03-08T04:33:53;1.80;99.90
32534;DHT22;18973;48.580;8.912;2024-03-08T04:36:18;1.90;99.90
32534;DHT22;18973;48.580;8.912;2024-03-08T04:38:45;2.00;99.90
32534;DHT22;18973;48.580;8.912;2024-03-08T04:41:11;1.80;99.90
32534;DHT22;18973;48.580;8.912;2024-03-08T04:43:37;1.80;99.90
32534;DHT22;18973;48.580;8.912;2024-03-08T04:46:02;1.60;99.90
32534;DHT22;18973;48.580;8.912;2024-03-08T04:48:29;1.50;99.90
32534;DHT22;18973;48.580;8.912;2024-03-08T04:50:55;1.50;99.90
32534;DHT22;18973;48.580;8.912;2024-03-08T04:53:21;1.50;99.90
32534;DHT22;18973;48.580;8.912;2024-03-08T04:55:47;1.60;99.90
32534;DHT22;18973;48.580;8.912;2024-03-08T04:58:13;1.40;99.90
32534;DHT22;18973;48.580;8.912;2024-03-08T05:00:38;1.50;99.90
32534;DHT22;18973;48.580;8.912;2024-03-08T05:03:04;1.70;99.90
32534;DHT22;18973;48.580;8.912;2024-03-08T05:05:30;1.80;99.90
32534;DHT22;18973;48.580;8.912;2024-03-08T05:07:56;1.70;99.90
32534;DHT22;18973;48.580;8.912;2024-03-08T05:10:22;1.80;99.90
32534;DHT22;18973;48.580;8.912;2024-03-08T05:12:48;1.80;99.90
32534;DHT22;18973;48.580;8.912;2024-03-08T05:15:13;2.00;99.90
32534;DHT22;18973;48.580;8.912;2024-03-08T05:17:40;2.10;99.90
32534;DHT22;18973;48.580;8.912;2024-03-08T05:20:09;1.90;99.90
32534;DHT22;18973;48.580;8.912;2024-03-08T05:22:38;2.10;99.90
32534;DHT22;18973;48.580;8.912;2024-03-08T05:25:03;2.20;99.90
32534;DHT22;18973;48.580;8.912;2024-03-08T05:27:29;2.00;99.90
32534;DHT22;18973;48.580;8.912;2024-03-08T05:29:55;2.10;99.90
32534;DHT22;18973;48.580;8.912;2024-03-08T05:32:21;2.30;99.90
32534;DHT22;18973;48.580;8.912;2024-03-08T05:34:46;2.40;99.90
32534;DHT22;18973;48.580;8.912;2024-03-08T05:37:12;2.40;99.90
32534;DHT22;18973;48.580;8.912;2024-03-08T05:39:38;2.40;99.90
32534;DHT22;18973;48.580;8.912;2024-03-08T05:42:04;2.50;99.90
32534;DHT22;18973;48.580;8.912;2024-03-08T05:44:29;2.60;99.90
32534;DHT22;18973;48.580;8.912;2024-03-08T05:46:56;2.60;99.90
32534;DHT22;18973;48.580;8.912;2024-03-08T05:49:22;2.70;99.90
32534;DHT22;18973;48.580;8.912;2024-03-08T05:51:47;2.80;99.90
32534;DHT22;18973;48.580;8.912;2024-03-08T05:54:13;2.70;99.90
32534;DHT22;18973;48.580;8.912;2024-03-08T05:56:39;2.60;99.90
32534;DHT22;18973;48.580;8.912;2024-03-08T05:59:09;2.70;99.90
32534;DHT22;18973;48.580;8.912;2024-03-08T06:01:35;2.60;99.90
32534;DHT22;18973;48.580;8.912;2024-03-08T06:04:02;2.60;99.90
32534;DHT22;18973;48.580;8.912;2024-03-08T06:06:28;2.80;99.90
32534;DHT22;18973;48.580;8.912;2024-03-08T06:08:55;2.80;99.90
32534;DHT22;18973;48.580;8.912;2024-03-08T06:11:24;2.50;99.90
32534;DHT22;18973;48.580;8.912;2024-03-08T06:13:52;2.40;99.90
32534;DHT22;18973;48.580;8.912;2024-03-08T06:16:20;2.60;99.90
32534;DHT22;18973;48.580;8.912;2024-03-08T06:18:46;2.50;99.90
32534;DHT22;18973;48.580;8.912;2024-03-08T06:21:14;2.60;99.90
32534;DHT22;18973;48.580;8.912;2024-03-08T06:23:41;2.70;99.90
32534;DHT22;18973;48.580;8.912;2024-03-08T06:26:10;2.60;99.90
32534;DHT22;18973;48.580;8.912;2024-03-08T06:28:35;2.70;99.90
32534;DHT22;18973;48.580;8.912;2024-03-08T06:31:02;2.80;99.90
32534;DHT22;18973;48.580;8.912;2024-03-08T06:33:28;2.90;99.90
32534;DHT22;18973;48.580;8.912;2024-03-08T06:35:55;2.90;99.90
32534;DHT22;18973;48.580;8.912;2024-03-08T06:38:29;2.90;99.90
32534;DHT22;18973;48.580;8.912;2024-03-08T06:40:56;3.00;99.90
32534;DHT22;18973;48.580;8.912;2024-03-08T06:43:21;3.10;99.90
32534;DHT22;18973;48.580;8.912;2024-03-08T06:45:47;3.00;99.90
32534;DHT22;18973;48.580;8.912;2024-03-08T06:48:18;2.80;99.90
32534;DHT22;18973;48.580;8.912;2024-03-08T06:50:44;2.90;99.90
32534;DHT22;18973;48.580;8.912;2024-03-08T06:53:11;3.00;99.90
32534;DHT22;18973;48.580;8.912;2024-03-08T06:55:37;3.00;99.90
32534;DHT22;18973;48.580;8.912;2024-03-08T06:58:03;3.10;99.90
32534;DHT22;18973;48.580;8.912;2024-03-08T07:00:29;3.10;99.90
32534;DHT22;18973;48.580;8.912;2024-03-08T07:02:56;3.00;99.90
32534;DHT22;18973;48.580;8.912;2024-03-08T07:05:26;3.00;99.90
32534;DHT22;18973;48.580;8.912;2024-03-08T07:07:52;2.80;99.90
32534;DHT22;18973;48.580;8.912;2024-03-08T07:10:18;3.00;99.90
32534;DHT22;18973;48.580;8.912;2024-03-08T07:12:44;3.00;99.90
32534;DHT22;18973;48.580;8.912;2024-03-08T07:15:11;3.00;99.90
32534;DHT22;18973;48.580;8.912;2024-03-08T07:17:39;3.00;99.90
32534;DHT22;18973;48.580;8.912;2024-03-08T07:20:06;3.00;99.90
32534;DHT22;18973;48.580;8.912;2024-03-08T07:22:37;2.90;99.90
32534;DHT22;18973;48.580;8.912;2024-03-08T07:25:05;2.90;99.90
32534;DHT22;18973;48.580;8.912;2024-03-08T07:27:53;2.80;99.90
32534;DHT22;18973;48.580;8.912;2024-03-08T07:30:24;2.80;99.90
32534;DHT22;18973;48.580;8.912;2024-03-08T07:33:08;2.80;99.90
32534;DHT22;18973;48.580;8.912;2024-03-08T07:35:37;2.90;99.90
32534;DHT22;18973;48.580;8.912;2024-03-08T07:38:06;3.00;99.90
32534;DHT22;18973;48.580;8.912;2024-03-08T07:40:37;3.00;99.90
32534;DHT22;18973;48.580;8.912;2024-03-08T07:43:12;3.00;99.90
32534;DHT22;18973;48.580;8.912;2024-03-08T07:45:38;3.00;99.90
32534;DHT22;18973;48.580;8.912;2024-03-08T07:48:04;3.10;99.90
32534;DHT22;18973;48.580;8.912;2024-03-08T07:50:38;3.20;99.90
32534;DHT22;18973;48.580;8.912;2024-03-08T07:53:05;3.30;99.90
32534;DHT22;18973;48.580;8.912;2024-03-08T07:55:34;3.30;99.90
32534;DHT22;18973;48.580;8.912;2024-03-08T07:58:01;3.40;99.90
32534;DHT22;18973;48.580;8.912;2024-03-08T08:00:27;3.40;99.90
32534;DHT22;18973;48.580;8.912;2024-03-08T08:02:54;3.40;99.90
32534;DHT22;18973;48.580;8.912;2024-03-08T08:05:19;3.40;99.90
32534;DHT22;18973;48.580;8.912;2024-03-08T08:07:46;3.50;99.90
32534;DHT22;18973;48.580;8.912;2024-03-08T08:10:15;3.50;99.90
32534;DHT22;18973;48.580;8.912;2024-03-08T08:12:50;3.50;99.90
32534;DHT22;18973;48.580;8.912;2024-03-08T08:15:19;3.40;99.90
32534;DHT22;18973;48.580;8.912;2024-03-08T08:17:45;3.30;99.90
32534;DHT22;18973;48.580;8.912;2024-03-08T08:20:12;3.40;99.90
32534;DHT22;18973;48.580;8.912;2024-03-08T08:22:38;3.40;99.90
32534;DHT22;18973;48.580;8.912;2024-03-08T08:25:05;3.30;99.90
32534;DHT22;18973;48.580;8.912;2024-03-08T08:27:31;3.40;99.90
32534;DHT22;18973;48.580;8.912;2024-03-08T08:29:57;3.30;99.90
32534;DHT22;18973;48.580;8.912;2024-03-08T08:32:22;3.30;99.90
32534;DHT22;18973;48.580;8.912;2024-03-08T08:34:48;3.40;99.90
32534;DHT22;18973;48.580;8.912;2024-03-08T08:37:14;3.40;99.90
32534;DHT22;18973;48.580;8.912;2024-03-08T08:39:39;3.40;99.90
32534;DHT22;18973;48.580;8.912;2024-03-08T08:42:05;3.40;99.90
32534;DHT22;18973;48.580;8.912;2024-03-08T08:44:35;3.50;99.90
32534;DHT22;18973;48.580;8.912;2024-03-08T08:47:02;3.60;99.90
32534;DHT22;18973;48.580;8.912;2024-03-08T08:49:29;3.70;99.90
32534;DHT22;18973;48.580;8.912;2024-03-08T08:51:56;3.60;99.90
32534;DHT22;18973;48.580;8.912;2024-03-08T08:54:23;3.60;99.90
32534;DHT22;18973;48.580;8.912;2024-03-08T08:56:50;3.60;99.90
32534;DHT22;18973;48.580;8.912;2024-03-08T08:59:16;3.50;99.90
32534;DHT22;18973;48.580;8.912;2024-03-08T09:01:45;3.50;99.90
32534;DHT22;18973;48.580;8.912;2024-03-08T09:04:15;3.50;99.90
32534;DHT22;18973;48.580;8.912;2024-03-08T09:06:42;3.50;99.90
32534;DHT22;18973;48.580;8.912;2024-03-08T09:09:07;3.50;99.90
32534;DHT22;18973;48.580;8.912;2024-03-08T09:11:39;3.60;99.90
32534;DHT22;18973;48.580;8.912;2024-03-08T09:14:08;3.60;99.90
32534;DHT22;18973;48.580;8.912;2024-03-08T09:16:34;3.60;99.90
32534;DHT22;18973;48.580;8.912;2024-03-08T09:19:00;3.60;99.90
32534;DHT22;18973;48.580;8.912;2024-03-08T09:21:26;3.70;99.90
32534;DHT22;18973;48.580;8.912;2024-03-08T09:23:53;3.70;99.90
32534;DHT22;18973;48.580;8.912;2024-03-08T09:26:19;3.70;99.90
32534;DHT22;18973;48.580;8.912;2024-03-08T09:28:45;3.80;99.90
32534;DHT22;18973;48.580;8.912;2024-03-08T09:31:11;3.80;99.90
32534;DHT22;18973;48.580;8.912;2024-03-08T09:33:37;3.80;99.90
32534;DHT22;18973;48.580;8.912;2024-03-08T09:36:05;3.80;99.90
32534;DHT22;18973;48.580;8.912;2024-03-08T09:38:33;3.80;99.90
32534;DHT22;18973;48.580;8.912;2024-03-08T09:41:00;3.80;99.90
32534;DHT22;18973;48.580;8.912;2024-03-08T09:43:28;3.90;99.90
32534;DHT22;18973;48.580;8.912;2024-03-08T09:45:54;3.90;99.90
32534;DHT22;18973;48.580;8.912;2024-03-08T09:48:21;4.00;99.90
32534;DHT22;18973;48.580;8.912;2024-03-08T09:50:47;4.00;99.90
32534;DHT22;18973;48.580;8.912;2024-03-08T09:53:15;3.90;99.90
32534;DHT22;18973;48.580;8.912;2024-03-08T09:55:42;4.00;99.90
32534;DHT22;18973;48.580;8.912;2024-03-08T09:58:12;4.00;99.90
32534;DHT22;18973;48.580;8.912;2024-03-08T10:01:02;3.90;99.90
32534;DHT22;18973;48.580;8.912;2024-03-08T10:03:30;4.00;99.90
32534;DHT22;18973;48.580;8.912;2024-03-08T10:05:57;4.00;99.90
32534;DHT22;18973;48.580;8.912;2024-03-08T10:08:29;3.90;99.90
32534;DHT22;18973;48.580;8.912;2024-03-08T10:10:56;4.00;99.90
32534;DHT22;18973;48.580;8.912;2024-03-08T10:13:25;4.00;99.90
32534;DHT22;18973;48.580;8.912;2024-03-08T10:15:52;3.90;99.90
32534;DHT22;18973;48.580;8.912;2024-03-08T10:18:18;4.00;99.90
32534;DHT22;18973;48.580;8.912;2024-03-08T10:20:44;4.00;99.90
32534;DHT22;18973;48.580;8.912;2024-03-08T10:23:10;4.00;99.90
32534;DHT22;18973;48.580;8.912;2024-03-08T10:25:36;4.10;99.90
32534;DHT22;18973;48.580;8.912;2024-03-08T10:28:05;4.20;99.90
32534;DHT22;18973;48.580;8.912;2024-03-08T10:30:31;4.20;99.90
32534;DHT22;18973;48.580;8.912;2024-03-08T10:32:58;4.30;99.90
32534;DHT22;18973;48.580;8.912;2024-03-08T10:35:24;4.30;99.90
32534;DHT22;18973;48.580;8.912;2024-03-08T10:37:52;4.30;99.90
32534;DHT22;18973;48.580;8.912;2024-03-08T10:40:29;4.40;99.90
32534;DHT22;18973;48.580;8.912;2024-03-08T10:42:59;4.40;99.90
32534;DHT22;18973;48.580;8.912;2024-03-08T10:45:38;4.40;99.90
32534;DHT22;18973;48.580;8.912;2024-03-08T10:48:29;4.80;99.90
32534;DHT22;18973;48.580;8.912;2024-03-08T10:51:05;4.70;99.90
32534;DHT22;18973;48.580;8.912;2024-03-08T10:53:30;4.70;99.90
32534;DHT22;18973;48.580;8.912;2024-03-08T10:55:57;4.80;99.90
32534;DHT22;18973;48.580;8.912;2024-03-08T10:58:24;4.80;99.90
32534;DHT22;18973;48.580;8.912;2024-03-08T11:00:57;4.80;99.90
32534;DHT22;18973;48.580;8.912;2024-03-08T11:06:18;4.90;99.90
32534;DHT22;18973;48.580;8.912;2024-03-08T11:08:46;4.90;99.90
32534;DHT22;18973;48.580;8.912;2024-03-08T11:11:24;5.00;99.90
32534;DHT22;18973;48.580;8.912;2024-03-08T11:13:56;5.10;99.90
32534;DHT22;18973;48.580;8.912;2024-03-08T11:18:53;6.10;99.90
32534;DHT22;18973;48.580;8.912;2024-03-08T11:21:20;8.20;99.90
32534;DHT22;18973;48.580;8.912;2024-03-08T11:24:06;8.30;99.90
32534;DHT22;18973;48.580;8.912;2024-03-08T11:26:33;7.70;99.90
32534;DHT22;18973;48.580;8.912;2024-03-08T11:32:03;7.00;99.90
32534;DHT22;18973;48.580;8.912;2024-03-08T11:34:29;6.40;99.90
32534;DHT22;18973;48.580;8.912;2024-03-08T11:36:56;6.30;99.90
32534;DHT22;18973;48.580;8.912;2024-03-08T11:39:22;6.20;99.90
32534;DHT22;18973;48.580;8.912;2024-03-08T11:41:49;6.20;99.90
32534;DHT22;18973;48.580;8.912;2024-03-08T11:44:15;6.20;99.90
32534;DHT22;18973;48.580;8.912;2024-03-08T11:46:42;6.20;99.90
32534;DHT22;18973;48.580;8.912;2024-03-08T11:49:12;6.10;99.90
32534;DHT22;18973;48.580;8.912;2024-03-08T11:51:38;6.30;99.90
32534;DHT22;18973;48.580;8.912;2024-03-08T11:54:04;6.40;99.90
32534;DHT22;18973;48.580;8.912;2024-03-08T11:56:31;6.40;99.90
32534;DHT22;18973;48.580;8.912;2024-03-08T11:58:57;6.40;99.90
32534;DHT22;18973;48.580;8.912;2024-03-08T12:01:23;6.30;99.90
32534;DHT22;18973;48.580;8.912;2024-03-08T12:03:57;6.50;99.90
32534;DHT22;18973;48.580;8.912;2024-03-08T12:06:24;6.70;99.90
32534;DHT22;18973;48.580;8.912;2024-03-08T12:08:50;6.90;99.90
32534;DHT22;18973;48.580;8.912;2024-03-08T12:11:17;7.00;99.90
32534;DHT22;18973;48.580;8.912;2024-03-08T12:13:48;7.10;99.90
32534;DHT22;18973;48.580;8.912;2024-03-08T12:16:17;7.30;99.90
32534;DHT22;18973;48.580;8.912;2024-03-08T12:18:51;7.40;99.90
32534;DHT22;18973;48.580;8.912;2024-03-08T12:21:19;7.50;99.90
32534;DHT22;18973;48.580;8.912;2024-03-08T12:24:10;7.70;99.90
32534;DHT22;18973;48.580;8.912;2024-03-08T12:26:39;7.80;99.90
32534;DHT22;18973;48.580;8.912;2024-03-08T12:29:22;8.00;99.90
32534;DHT22;18973;48.580;8.912;2024-03-08T12:32:02;8.00;99.90
32534;DHT22;18973;48.580;8.912;2024-03-08T12:34:30;7.90;99.90
32534;DHT22;18973;48.580;8.912;2024-03-08T12:36:58;8.00;99.90
32534;DHT22;18973;48.580;8.912;2024-03-08T12:39:24;8.20;99.90
32534;DHT22;18973;48.580;8.912;2024-03-08T12:41:56;8.10;99.90
32534;DHT22;18973;48.580;8.912;2024-03-08T12:44:25;8.30;99.90
32534;DHT22;18973;48.580;8.912;2024-03-08T12:46:53;8.60;99.90
32534;DHT22;18973;48.580;8.912;2024-03-08T12:49:19;8.90;99.90
32534;DHT22;18973;48.580;8.912;2024-03-08T12:51:48;9.10;99.90
32534;DHT22;18973;48.580;8.912;2024-03-08T12:54:14;9.10;99.90
32534;DHT22;18973;48.580;8.912;2024-03-08T12:56:40;9.30;99.90
32534;DHT22;18973;48.580;8.912;2024-03-08T12:59:07;9.40;99.90
32534;DHT22;18973;48.580;8.912;2024-03-08T13:01:36;9.40;99.90
32534;DHT22;18973;48.580;8.912;2024-03-08T13:04:05;9.50;99.90
32534;DHT22;18973;48.580;8.912;2024-03-08T13:06:32;9.60;99.90
32534;DHT22;18973;48.580;8.912;2024-03-08T13:08:58;9.60;99.90
32534;DHT22;18973;48.580;8.912;2024-03-08T13:11:25;9.80;99.90
32534;DHT22;18973;48.580;8.912;2024-03-08T13:13:51;9.20;99.90
32534;DHT22;18973;48.580;8.912;2024-03-08T13:16:18;9.10;99.90
32534;DHT22;18973;48.580;8.912;2024-03-08T13:18:45;9.50;99.90
32534;DHT22;18973;48.580;8.912;2024-03-08T13:21:14;9.70;99.90
32534;DHT22;18973;48.580;8.912;2024-03-08T13:23:41;9.80;99.90
32534;DHT22;18973;48.580;8.912;2024-03-08T13:26:11;9.90;99.90
32534;DHT22;18973;48.580;8.912;2024-03-08T13:28:41;9.90;99.90
32534;DHT22;18973;48.580;8.912;2024-03-08T13:31:07;10.00;99.90
32534;DHT22;18973;48.580;8.912;2024-03-08T13:33:41;10.10;99.90
32534;DHT22;18973;48.580;8.912;2024-03-08T13:36:12;10.00;99.90
32534;DHT22;18973;48.580;8.912;2024-03-08T13:38:45;10.00;99.90
32534;DHT22;18973;48.580;8.912;2024-03-08T13:41:12;9.90;99.90
32534;DHT22;18973;48.580;8.912;2024-03-08T13:43:40;9.90;99.90
32534;DHT22;18973;48.580;8.912;2024-03-08T13:46:06;9.90;99.90
32534;DHT22;18973;48.580;8.912;2024-03-08T13:48:33;9.90;99.90
32534;DHT22;18973;48.580;8.912;2024-03-08T13:50:59;10.00;99.90
32534;DHT22;18973;48.580;8.912;2024-03-08T13:53:26;10.20;99.90
32534;DHT22;18973;48.580;8.912;2024-03-08T13:55:51;10.20;99.90
32534;DHT22;18973;48.580;8.912;2024-03-08T13:58:17;10.20;99.90
32534;DHT22;18973;48.580;8.912;2024-03-08T14:00:43;10.30;99.90
32534;DHT22;18973;48.580;8.912;2024-03-08T14:03:11;10.20;99.90
32534;DHT22;18973;48.580;8.912;2024-03-08T14:05:41;10.10;99.90
32534;DHT22;18973;48.580;8.912;2024-03-08T14:08:10;10.20;99.90
32534;DHT22;18973;48.580;8.912;2024-03-08T14:10:38;10.20;99.90
32534;DHT22;18973;48.580;8.912;2024-03-08T14:13:04;10.40;99.90
32534;DHT22;18973;48.580;8.912;2024-03-08T14:15:31;10.30;99.90
32534;DHT22;18973;48.580;8.912;2024-03-08T14:17:57;10.40;99.90
32534;DHT22;18973;48.580;8.912;2024-03-08T14:20:23;10.40;99.90
32534;DHT22;18973;48.580;8.912;2024-03-08T14:22:56;10.50;99.90
32534;DHT22;18973;48.580;8.912;2024-03-08T14:25:23;10.60;99.90
32534;DHT22;18973;48.580;8.912;2024-03-08T14:27:53;10.60;99.90
32534;DHT22;18973;48.580;8.912;2024-03-08T14:30:19;10.60;99.90
32534;DHT22;18973;48.580;8.912;2024-03-08T14:33:04;10.60;99.90
32534;DHT22;18973;48.580;8.912;2024-03-08T14:35:31;10.50;99.90
32534;DHT22;18973;48.580;8.912;2024-03-08T14:37:57;10.60;99.50
32534;DHT22;18973;48.580;8.912;2024-03-08T14:40:24;10.60;99.60
32534;DHT22;18973;48.580;8.912;2024-03-08T14:42:51;10.80;99.70
32534;DHT22;18973;48.580;8.912;2024-03-08T14:45:17;10.90;99.40
32534;DHT22;18973;48.580;8.912;2024-03-08T14:47:46;10.80;99.80
32534;DHT22;18973;48.580;8.912;2024-03-08T14:50:18;10.80;99.90
32534;DHT22;18973;48.580;8.912;2024-03-08T14:52:44;10.80;99.70
32534;DHT22;18973;48.580;8.912;2024-03-08T14:55:14;10.80;99.90
32534;DHT22;18973;48.580;8.912;2024-03-08T14:57:43;10.40;99.80
32534;DHT22;18973;48.580;8.912;2024-03-08T15:00:12;10.30;99.90
32534;DHT22;18973;48.580;8.912;2024-03-08T15:03:04;10.70;99.90
32534;DHT22;18973;48.580;8.912;2024-03-08T15:05:34;10.80;99.70
32534;DHT22;18973;48.580;8.912;2024-03-08T15:08:03;10.70;99.90
32534;DHT22;18973;48.580;8.912;2024-03-08T15:10:35;10.70;99.50
32534;DHT22;18973;48.580;8.912;2024-03-08T15:13:01;10.70;99.90
32534;DHT22;18973;48.580;8.912;2024-03-08T15:15:36;10.70;99.90
32534;DHT22;18973;48.580;8.912;2024-03-08T15:18:08;10.40;99.90
32534;DHT22;18973;48.580;8.912;2024-03-08T15:20:34;10.20;99.90
32534;DHT22;18973;48.580;8.912;2024-03-08T15:23:00;10.00;99.90
32534;DHT22;18973;48.580;8.912;2024-03-08T15:25:25;10.20;99.90
32534;DHT22;18973;48.580;8.912;2024-03-08T15:27:55;10.40;99.90
32534;DHT22;18973;48.580;8.912;2024-03-08T15:30:21;10.30;99.90
32534;DHT22;18973;48.580;8.912;2024-03-08T15:32:56;10.30;99.90
32534;DHT22;18973;48.580;8.912;2024-03-08T15:35:25;10.30;99.90
32534;DHT22;18973;48.580;8.912;2024-03-08T15:37:54;10.20;99.90
32534;DHT22;18973;48.580;8.912;2024-03-08T15:40:20;10.00;99.90
32534;DHT22;18973;48.580;8.912;2024-03-08T15:42:54;9.70;99.90
32534;DHT22;18973;48.580;8.912;2024-03-08T15:45:21;9.80;99.90
32534;DHT22;18973;48.580;8.912;2024-03-08T15:47:51;9.70;99.90
32534;DHT22;18973;48.580;8.912;2024-03-08T15:50:17;9.90;99.90
32534;DHT22;18973;48.580;8.912;2024-03-08T15:52:44;9.80;99.90
32534;DHT22;18973;48.580;8.912;2024-03-08T15:55:14;9.80;99.90
32534;DHT22;18973;48.580;8.912;2024-03-08T15:57:47;9.60;99.90